createdAt,value
2024-02-08T00:01:30.991Z,100569.47
2024-02-08T00:03:59.066Z,100581.20
2024-02-08T00:06:27.382Z,100569.80
2024-02-08T00:08:56.147Z,100575.16
2024-02-08T00:11:24.157Z,100567.48
2024-02-08T00:13:52.358Z,100566.30
2024-02-08T00:16:20.626Z,100572.97
2024-02-08T00:18:48.845Z,100562.08
2024-02-08T00:21:17.105Z,100563.75
2024-02-08T00:23:46.554Z,100577.97
2024-02-08T00:26:14.601Z,100563.42
2024-02-08T00:28:42.768Z,100556.91
2024-02-08T00:31:10.862Z,100573.62
2024-02-08T00:33:40.070Z,100562.24
2024-02-08T00:36:08.292Z,100564.56
2024-02-08T00:38:37.967Z,100556.91
2024-02-08T00:41:06.379Z,100551.23
2024-02-08T00:43:34.574Z,100537.82
2024-02-08T00:46:05.370Z,100539.32
2024-02-08T00:48:33.513Z,100537.30
2024-02-08T00:51:01.871Z,100531.28
2024-02-08T00:53:29.836Z,100521.08
2024-02-08T00:55:57.878Z,100513.72
2024-02-08T00:58:26.105Z,100510.06
2024-02-08T01:00:55.648Z,100506.01
2024-02-08T01:03:26.147Z,100514.54
2024-02-08T01:05:55.686Z,100509.38
2024-02-08T01:08:24.930Z,100493.94
2024-02-08T01:10:53.048Z,100510.68
2024-02-08T01:13:21.113Z,100523.73
2024-02-08T01:15:49.433Z,100521.21
2024-02-08T01:18:20.071Z,100507.15
2024-02-08T01:20:48.175Z,100500.97
2024-02-08T01:23:19.804Z,100513.16
2024-02-08T01:25:49.549Z,100521.41
2024-02-08T01:28:17.617Z,100513.69
2024-02-08T01:30:48.273Z,100507.84
2024-02-08T01:33:16.381Z,100511.98
2024-02-08T01:35:44.427Z,100508.00
2024-02-08T01:38:12.503Z,100508.13
2024-02-08T01:40:42.914Z,100513.00
2024-02-08T01:43:13.374Z,100510.16
2024-02-08T01:45:43.719Z,100512.19
2024-02-08T01:48:13.429Z,100511.50
2024-02-08T01:50:47.435Z,100507.45
2024-02-08T01:53:17.904Z,100529.25
2024-02-08T01:55:52.457Z,100512.19
2024-02-08T01:58:20.806Z,100515.16
2024-02-08T02:00:51.600Z,100503.42
2024-02-08T02:03:22.041Z,100503.78
2024-02-08T02:05:50.093Z,100505.94
2024-02-08T02:08:25.399Z,100509.77
2024-02-08T02:11:33.758Z,100517.45
2024-02-08T02:14:01.907Z,100505.74
2024-02-08T02:16:30.107Z,100500.91
2024-02-08T02:18:59.194Z,100508.91
2024-02-08T02:21:27.371Z,100515.16
2024-02-08T02:23:56.590Z,100512.31
2024-02-08T02:26:24.887Z,100511.11
2024-02-08T02:28:53.599Z,100519.97
2024-02-08T02:31:24.552Z,100508.26
2024-02-08T02:33:52.925Z,100500.05
2024-02-08T02:36:21.034Z,100494.85
2024-02-08T02:38:48.982Z,100489.52
2024-02-08T02:41:17.778Z,100486.16
2024-02-08T02:43:46.967Z,100497.87
2024-02-08T02:46:15.134Z,100479.98
2024-02-08T02:48:43.435Z,100502.28
2024-02-08T02:51:14.384Z,100495.38
2024-02-08T02:53:42.618Z,100491.36
2024-02-08T02:56:11.140Z,100476.41
2024-02-08T02:58:39.442Z,100490.38
2024-02-08T03:01:07.715Z,100499.89
2024-02-08T03:03:40.333Z,100499.20
2024-02-08T03:06:16.878Z,100509.47
2024-02-08T03:08:49.093Z,100506.07
2024-02-08T03:11:17.428Z,100521.50
2024-02-08T03:13:46.279Z,100497.38
2024-02-08T03:16:17.168Z,100499.04
2024-02-08T03:18:46.469Z,100491.69
2024-02-08T03:21:20.316Z,100493.68
2024-02-08T03:23:49.282Z,100495.84
2024-02-08T03:26:18.693Z,100508.09
2024-02-08T03:28:46.853Z,100495.51
2024-02-08T03:31:16.748Z,100500.02
2024-02-08T03:33:47.915Z,100493.65
2024-02-08T03:36:16.096Z,100502.54
2024-02-08T03:38:44.342Z,100500.52
2024-02-08T03:41:12.474Z,100498.48
2024-02-08T03:43:40.948Z,100503.84
2024-02-08T03:46:09.933Z,100490.45
2024-02-08T03:48:39.277Z,100489.62
2024-02-08T03:51:07.527Z,100500.80
2024-02-08T03:53:39.201Z,100487.76
2024-02-08T03:56:08.895Z,100500.80
2024-02-08T03:58:38.637Z,100495.61
2024-02-08T04:01:06.905Z,100488.71
2024-02-08T04:03:55.876Z,100492.41
2024-02-08T04:06:40.079Z,100494.07
2024-02-08T04:09:11.258Z,100493.25
2024-02-08T04:11:57.694Z,100496.91
2024-02-08T04:14:44.346Z,100490.05
2024-02-08T04:17:30.974Z,100492.21
2024-02-08T04:20:17.811Z,100493.84
2024-02-08T04:23:04.824Z,100494.73
2024-02-08T04:25:51.521Z,100489.85
2024-02-08T04:28:38.345Z,100484.49
2024-02-08T04:31:29.814Z,100486.19
2024-02-08T04:34:16.908Z,100480.11
2024-02-08T04:37:03.569Z,100479.78
2024-02-08T04:39:57.525Z,100479.29
2024-02-08T04:42:44.247Z,100480.96
2024-02-08T04:45:30.783Z,100475.76
2024-02-08T04:48:17.762Z,100474.42
2024-02-08T04:51:04.844Z,100474.42
2024-02-08T04:53:47.997Z,100490.31
2024-02-08T04:56:20.995Z,100485.47
2024-02-08T04:59:08.699Z,100480.96
2024-02-08T05:01:44.185Z,100480.11
2024-02-08T05:04:12.296Z,100479.78
2024-02-08T05:06:40.493Z,100477.76
2024-02-08T05:09:08.826Z,100470.07
2024-02-08T05:11:38.920Z,100477.40
2024-02-08T05:14:07.269Z,100476.25
2024-02-08T05:16:39.482Z,100473.54
2024-02-08T05:19:07.789Z,100476.71
2024-02-08T05:21:43.816Z,100467.00
2024-02-08T05:24:15.556Z,100460.46
2024-02-08T05:26:43.809Z,100460.82
2024-02-08T05:29:11.871Z,100442.90
2024-02-08T05:31:42.159Z,100438.55
2024-02-08T05:34:16.682Z,100430.84
2024-02-08T05:36:46.714Z,100425.96
2024-02-08T05:39:27.698Z,100435.31
2024-02-08T05:41:59.675Z,100427.47
2024-02-08T05:44:33.438Z,100412.43
2024-02-08T05:47:11.592Z,100411.35
2024-02-08T05:49:41.387Z,100402.36
2024-02-08T05:52:09.991Z,100410.20
2024-02-08T05:54:43.018Z,100415.05
2024-02-08T05:57:13.511Z,100411.02
2024-02-08T05:59:42.448Z,100408.51
2024-02-08T06:02:26.464Z,100410.20
2024-02-08T06:05:03.376Z,100416.71
2024-02-08T06:07:33.503Z,100424.88
2024-02-08T06:10:17.187Z,100417.20
2024-02-08T06:12:46.469Z,100427.41
2024-02-08T06:15:27.823Z,100425.90
2024-02-08T06:18:06.634Z,100421.02
2024-02-08T06:20:45.819Z,100430.05
2024-02-08T06:23:20.926Z,100436.59
2024-02-08T06:26:11.014Z,100443.95
2024-02-08T06:28:55.698Z,100438.59
2024-02-08T06:31:35.550Z,100433.35
2024-02-08T06:34:12.852Z,100432.54
2024-02-08T06:36:54.971Z,100428.16
2024-02-08T06:39:26.048Z,100424.49
2024-02-08T06:41:55.211Z,100416.29
2024-02-08T06:44:38.817Z,100407.72
2024-02-08T06:47:25.704Z,100404.19
2024-02-08T06:50:12.520Z,100422.11
2024-02-08T06:52:59.245Z,100412.27
2024-02-08T06:55:45.651Z,100415.11
2024-02-08T06:58:32.769Z,100412.72
2024-02-08T07:01:20.120Z,100419.63
2024-02-08T07:04:06.959Z,100419.63
2024-02-08T07:06:53.793Z,100416.29
2024-02-08T07:09:40.411Z,100423.80
2024-02-08T07:12:27.492Z,100417.40
2024-02-08T07:15:14.306Z,100416.91
2024-02-08T07:18:01.025Z,100426.16
2024-02-08T07:20:47.588Z,100424.13
2024-02-08T07:23:34.326Z,100422.73
2024-02-08T07:26:21.185Z,100418.02
2024-02-08T07:29:08.101Z,100434.40
2024-02-08T07:31:54.641Z,100426.32
2024-02-08T07:34:41.716Z,100416.25
2024-02-08T07:37:27.907Z,100414.72
2024-02-08T07:40:20.644Z,100405.46
2024-02-08T07:42:54.587Z,100417.95
2024-02-08T07:45:29.533Z,100412.52
2024-02-08T07:48:01.091Z,100417.04
2024-02-08T07:50:38.155Z,100423.55
2024-02-08T07:53:11.453Z,100420.37
2024-02-08T07:55:39.555Z,100423.22
2024-02-08T07:58:10.702Z,100421.55
2024-02-08T08:00:41.500Z,100421.55
2024-02-08T08:03:11.190Z,100412.27
2024-02-08T08:05:45.112Z,100413.48
2024-02-08T08:08:34.801Z,100421.68
2024-02-08T08:11:17.977Z,100427.01
2024-02-08T08:13:57.914Z,100425.51
2024-02-08T08:16:33.210Z,100424.66
2024-02-08T08:19:01.515Z,100420.99
2024-02-08T08:21:30.202Z,100412.66
2024-02-08T08:24:05.293Z,100410.99
2024-02-08T08:26:41.805Z,100408.15
2024-02-08T08:29:19.462Z,100409.59
2024-02-08T08:31:56.411Z,100409.75
2024-02-08T08:34:27.291Z,100404.16
2024-02-08T08:37:05.661Z,100406.64
2024-02-08T08:39:52.616Z,100410.37
2024-02-08T08:42:20.648Z,100405.95
2024-02-08T08:44:51.627Z,100415.11
2024-02-08T08:47:26.887Z,100411.19
2024-02-08T08:49:55.048Z,100415.57
2024-02-08T08:52:29.069Z,100411.64
2024-02-08T08:55:04.144Z,100415.93
2024-02-08T08:57:32.237Z,100407.49
2024-02-08T09:00:01.823Z,100409.03
2024-02-08T09:02:32.260Z,100416.19
2024-02-08T09:05:00.564Z,100402.52
2024-02-08T09:07:32.919Z,100410.70
2024-02-08T09:10:04.283Z,100410.73
2024-02-08T09:12:42.441Z,100409.59
2024-02-08T09:15:22.387Z,100404.94
2024-02-08T09:18:00.689Z,100413.48
2024-02-08T09:20:31.158Z,100404.88
2024-02-08T09:23:00.516Z,100400.63
2024-02-08T09:25:35.959Z,100402.62
2024-02-08T09:28:26.719Z,100413.12
2024-02-08T09:30:56.220Z,100407.91
2024-02-08T09:33:33.549Z,100405.27
2024-02-08T09:36:01.968Z,100400.33
2024-02-08T09:38:31.013Z,100408.38
2024-02-08T09:41:01.967Z,100401.87
2024-02-08T09:43:33.043Z,100398.40
2024-02-08T09:46:15.100Z,100407.13
2024-02-08T09:48:50.133Z,100400.82
2024-02-08T09:51:25.782Z,100391.44
2024-02-08T09:54:03.518Z,100413.45
2024-02-08T09:56:38.197Z,100395.59
2024-02-08T09:59:21.448Z,100385.23
2024-02-08T10:01:52.517Z,100394.28
2024-02-08T10:04:27.678Z,100390.72
2024-02-08T10:06:59.246Z,100384.18
2024-02-08T10:09:36.893Z,100392.84
2024-02-08T10:12:11.336Z,100392.98
2024-02-08T10:14:44.236Z,100386.56
2024-02-08T10:17:20.836Z,100395.23
2024-02-08T10:20:17.089Z,100392.02
2024-02-08T10:22:56.233Z,100402.39
2024-02-08T10:25:46.888Z,100404.91
2024-02-08T10:28:28.695Z,100401.09
2024-02-08T10:31:02.261Z,100391.34
2024-02-08T10:33:40.526Z,100400.00
2024-02-08T10:36:24.157Z,100387.77
2024-02-08T10:38:59.033Z,100387.05
2024-02-08T10:41:38.438Z,100393.01
2024-02-08T10:44:20.186Z,100388.59
2024-02-08T10:46:51.036Z,100382.87
2024-02-08T10:49:25.454Z,100387.71
2024-02-08T10:52:03.247Z,100382.84
2024-02-08T10:54:42.281Z,100383.33
2024-02-08T10:57:12.381Z,100368.45
2024-02-08T10:59:50.456Z,100365.80
2024-02-08T11:02:37.005Z,100363.52
2024-02-08T11:05:34.619Z,100363.29
2024-02-08T11:08:03.344Z,100350.70
2024-02-08T11:10:34.674Z,100346.91
2024-02-08T11:13:05.374Z,100349.03
2024-02-08T11:15:33.526Z,100335.69
2024-02-08T11:18:06.491Z,100330.88
2024-02-08T11:20:44.709Z,100332.55
2024-02-08T11:23:14.832Z,100324.70
2024-02-08T11:25:47.468Z,100313.13
2024-02-08T11:28:25.961Z,100305.91
2024-02-08T11:30:56.119Z,100302.02
2024-02-08T11:33:35.610Z,100295.28
2024-02-08T11:36:16.450Z,100304.79
2024-02-08T11:39:00.479Z,100307.54
2024-02-08T11:41:28.657Z,100282.98
2024-02-08T11:44:08.245Z,100302.66
2024-02-08T11:46:48.587Z,100288.51
2024-02-08T11:49:26.891Z,100297.24
2024-02-08T11:51:55.369Z,100288.87
2024-02-08T11:54:31.433Z,100287.37
2024-02-08T11:57:08.906Z,100280.89
2024-02-08T11:59:39.045Z,100269.16
2024-02-08T12:02:13.093Z,100253.27
2024-02-08T12:04:41.475Z,100255.26
2024-02-08T12:07:10.544Z,100255.06
2024-02-08T12:09:38.884Z,100248.62
2024-02-08T12:12:07.363Z,100260.06
2024-02-08T12:14:36.985Z,100258.79
2024-02-08T12:17:09.072Z,100236.78
2024-02-08T12:19:38.599Z,100241.85
2024-02-08T12:22:06.881Z,100254.08
2024-02-08T12:24:35.048Z,100253.46
2024-02-08T12:27:14.082Z,100248.20
2024-02-08T12:29:45.111Z,100242.63
2024-02-08T12:32:19.316Z,100236.91
2024-02-08T12:34:51.068Z,100232.30
2024-02-08T12:37:19.771Z,100234.46
2024-02-08T12:39:48.189Z,100224.16
2024-02-08T12:42:17.562Z,100237.80
2024-02-08T12:44:51.108Z,100221.52
2024-02-08T12:47:22.401Z,100221.65
2024-02-08T12:49:53.358Z,100217.00
2024-02-08T12:52:22.744Z,100217.46
2024-02-08T12:54:56.959Z,100218.05
2024-02-08T12:57:26.171Z,100202.39
2024-02-08T13:00:02.499Z,100207.26
2024-02-08T13:02:35.620Z,100209.25
2024-02-08T13:05:06.622Z,100190.91
2024-02-08T13:07:37.560Z,100203.89
2024-02-08T13:10:17.607Z,100193.37
2024-02-08T13:12:47.584Z,100184.70
2024-02-08T13:15:23.833Z,100179.86
2024-02-08T13:17:53.360Z,100181.07
2024-02-08T13:20:24.315Z,100177.02
2024-02-08T13:22:54.650Z,100167.89
2024-02-08T13:25:22.721Z,100168.77
2024-02-08T13:27:52.894Z,100169.10
2024-02-08T13:30:21.116Z,100168.48
2024-02-08T13:32:54.453Z,100163.41
2024-02-08T13:35:23.093Z,100157.01
2024-02-08T13:37:53.091Z,100151.88
2024-02-08T13:40:22.578Z,100148.24
2024-02-08T13:42:55.315Z,100137.62
2024-02-08T13:45:34.182Z,100139.16
2024-02-08T13:48:03.577Z,100137.23
2024-02-08T13:50:33.643Z,100136.47
2024-02-08T13:53:05.883Z,100132.84
2024-02-08T13:58:09.184Z,100135.72
2024-02-08T14:00:37.517Z,100134.58
2024-02-08T14:03:07.189Z,100132.62
2024-02-08T14:05:42.123Z,100118.78
2024-02-08T14:08:19.690Z,100125.09
2024-02-08T14:10:48.207Z,100120.65
2024-02-08T14:13:20.669Z,100125.62
2024-02-08T14:15:50.229Z,100133.37
2024-02-08T14:18:29.754Z,100117.02
2024-02-08T14:21:05.783Z,100115.88
2024-02-08T14:23:35.435Z,100099.62
2024-02-08T14:26:11.944Z,100095.54
2024-02-08T14:28:42.561Z,100089.78
2024-02-08T14:31:13.518Z,100090.50
2024-02-08T14:33:48.954Z,100088.05
2024-02-08T14:36:17.344Z,100076.18
2024-02-08T14:38:48.319Z,100075.76
2024-02-08T14:41:28.803Z,100082.30
2024-02-08T14:43:57.385Z,100068.86
2024-02-08T14:46:28.565Z,100061.53
2024-02-08T14:48:56.788Z,100061.53
2024-02-08T14:51:27.705Z,100061.53
2024-02-08T14:53:56.478Z,100060.71
2024-02-08T14:56:24.874Z,100060.23
2024-02-08T14:58:59.253Z,100062.58
2024-02-08T15:01:55.198Z,100060.09
2024-02-08T15:04:28.343Z,100058.82
2024-02-08T15:07:08.921Z,100051.76
2024-02-08T15:09:37.641Z,100044.37
2024-02-08T15:12:30.296Z,100047.67
2024-02-08T15:14:58.631Z,100032.14
2024-02-08T15:17:26.821Z,100032.07
2024-02-08T15:19:55.259Z,100022.20
2024-02-08T15:22:32.157Z,100023.44
2024-02-08T15:25:06.394Z,100013.57
2024-02-08T15:27:37.143Z,100013.14
2024-02-08T15:30:18.207Z,100006.54
2024-02-08T15:32:56.951Z,100009.80
2024-02-08T15:35:26.805Z,100008.92
2024-02-08T15:38:14.597Z,99999.09
2024-02-08T15:40:47.491Z,99993.39
2024-02-08T15:43:19.490Z,99994.21
2024-02-08T15:45:55.306Z,99989.27
2024-02-08T15:48:34.548Z,99984.76
2024-02-08T15:51:11.387Z,99986.33
2024-02-08T15:53:51.505Z,99976.88
2024-02-08T15:56:22.793Z,99974.37
2024-02-08T15:58:51.530Z,99961.22
2024-02-08T16:01:42.717Z,99957.91
2024-02-08T16:04:47.432Z,99965.21
2024-02-08T16:07:17.531Z,99959.42
2024-02-08T16:09:49.637Z,99947.09
2024-02-08T16:12:23.768Z,99942.16
2024-02-08T16:15:10.845Z,99947.88
2024-02-08T16:17:39.706Z,99938.01
2024-02-08T16:20:11.072Z,99933.88
2024-02-08T16:22:55.322Z,99929.73
2024-02-08T16:25:46.148Z,99931.73
2024-02-08T16:28:23.152Z,99923.88
2024-02-08T16:31:01.915Z,99920.12
2024-02-08T16:33:36.540Z,99914.30
2024-02-08T16:36:26.948Z,99907.30
2024-02-08T16:39:15.909Z,99906.88
2024-02-08T16:41:51.114Z,99902.30
2024-02-08T16:44:24.445Z,99884.25
2024-02-08T16:46:56.091Z,99888.63
2024-02-08T16:49:29.945Z,99878.83
2024-02-08T16:52:06.585Z,99883.73
2024-02-08T16:54:37.529Z,99886.54
2024-02-08T16:57:06.387Z,99878.76
2024-02-08T16:59:48.205Z,99885.30
2024-02-08T17:02:29.220Z,99877.55
2024-02-08T17:05:19.039Z,99870.95
2024-02-08T17:07:47.750Z,99868.49
2024-02-08T17:10:36.080Z,99858.98
2024-02-08T17:13:18.320Z,99857.28
2024-02-08T17:16:05.893Z,99855.61
2024-02-08T17:18:47.344Z,99853.52
2024-02-08T17:21:39.048Z,99850.19
2024-02-08T17:24:11.165Z,99846.45
2024-02-08T17:26:39.312Z,99838.28
2024-02-08T17:29:21.631Z,99842.27
2024-02-08T17:31:49.943Z,99841.45
2024-02-08T17:34:24.204Z,99841.84
2024-02-08T17:36:56.389Z,99833.25
2024-02-08T17:39:27.523Z,99829.12
2024-02-08T17:41:59.670Z,99829.48
2024-02-08T17:44:32.537Z,99820.49
2024-02-08T17:47:02.469Z,99816.70
2024-02-08T17:49:32.506Z,99811.02
2024-02-08T17:52:02.195Z,99808.89
2024-02-08T17:54:34.452Z,99810.88
2024-02-08T17:57:04.212Z,99803.82
2024-02-08T17:59:32.445Z,99800.06
2024-02-08T18:02:09.369Z,99802.77
2024-02-08T18:04:40.774Z,99790.97
2024-02-08T18:07:13.340Z,99786.03
2024-02-08T18:09:42.302Z,99790.09
2024-02-08T18:12:16.394Z,99779.04
2024-02-08T18:14:44.605Z,99780.25
2024-02-08T18:17:17.736Z,99783.09
2024-02-08T18:19:49.328Z,99776.16
2024-02-08T18:22:18.256Z,99772.95
2024-02-08T18:24:52.292Z,99761.91
2024-02-08T18:27:24.682Z,99753.77
2024-02-08T18:29:53.571Z,99754.58
2024-02-08T18:32:21.945Z,99749.12
2024-02-08T18:34:51.740Z,99755.59
2024-02-08T18:37:29.178Z,99755.82
2024-02-08T18:39:57.646Z,99747.19
2024-02-08T18:42:29.615Z,99743.37
2024-02-08T18:44:58.645Z,99735.48
2024-02-08T18:47:30.901Z,99741.93
2024-02-08T18:50:00.819Z,99736.56
2024-02-08T18:52:29.907Z,99735.62
2024-02-08T18:55:01.895Z,99722.51
2024-02-08T18:57:31.603Z,99714.30
2024-02-08T18:59:59.740Z,99719.46
2024-02-08T19:02:27.905Z,99725.12
2024-02-08T19:04:59.091Z,99718.94
2024-02-08T19:07:28.401Z,99718.84
2024-02-08T19:09:57.583Z,99711.03
2024-02-08T19:12:28.071Z,99710.15
2024-02-08T19:14:56.205Z,99700.70
2024-02-08T19:17:27.772Z,99701.71
2024-02-08T19:19:56.198Z,99712.17
2024-02-08T19:22:25.662Z,99703.15
2024-02-08T19:24:56.873Z,99690.10
2024-02-08T19:27:24.891Z,99675.36
2024-02-08T19:29:56.282Z,99676.47
2024-02-08T19:32:24.863Z,99674.02
2024-02-08T19:34:53.393Z,99670.71
2024-02-08T19:37:24.986Z,99675.13
2024-02-08T19:39:57.002Z,99665.74
2024-02-08T19:42:25.180Z,99668.98
2024-02-08T19:44:57.753Z,99658.32
2024-02-08T19:47:30.104Z,99658.68
2024-02-08T19:50:08.403Z,99657.87
2024-02-08T19:52:42.138Z,99658.26
2024-02-08T19:55:17.813Z,99653.71
2024-02-08T19:57:48.290Z,99656.98
2024-02-08T20:00:19.957Z,99662.21
2024-02-08T20:02:49.306Z,99653.19
2024-02-08T20:05:24.880Z,99651.20
2024-02-08T20:07:53.726Z,99649.92
2024-02-08T20:10:22.062Z,99650.28
2024-02-08T20:12:54.437Z,99652.21
2024-02-08T20:15:30.327Z,99649.37
2024-02-08T20:18:01.213Z,99651.00
2024-02-08T20:20:30.636Z,99661.30
2024-02-08T20:23:01.870Z,99653.19
2024-02-08T20:25:35.568Z,99652.02
2024-02-08T20:28:08.684Z,99659.37
2024-02-08T20:30:41.073Z,99650.73
2024-02-08T20:33:15.381Z,99649.07
2024-02-08T20:35:44.599Z,99651.55
2024-02-08T20:38:17.021Z,99666.20
2024-02-08T20:40:45.467Z,99670.29
2024-02-08T20:43:15.294Z,99662.12
2024-02-08T20:45:51.772Z,99663.69
2024-02-08T20:48:23.896Z,99633.08
2024-02-08T20:50:52.799Z,99631.80
2024-02-08T20:53:21.057Z,99635.47
2024-02-08T20:55:51.144Z,99643.22
2024-02-08T20:58:21.304Z,99648.91
2024-02-08T21:00:53.146Z,99667.28
2024-02-08T21:03:28.595Z,99673.00
2024-02-08T21:08:23.780Z,99678.07
2024-02-08T21:10:54.925Z,99677.09
2024-02-08T21:13:23.198Z,99669.63
2024-02-08T21:15:52.371Z,99668.00
2024-02-08T21:18:24.457Z,99672.41
2024-02-08T21:20:53.506Z,99674.45
2024-02-08T21:23:21.758Z,99675.62
2024-02-08T21:25:52.568Z,99677.65
2024-02-08T21:28:21.057Z,99684.91
2024-02-08T21:30:49.201Z,99684.48
2024-02-08T21:33:18.332Z,99679.51
2024-02-08T21:35:49.312Z,99681.41
2024-02-08T21:38:18.657Z,99694.42
2024-02-08T21:40:48.347Z,99687.03
2024-02-08T21:43:19.700Z,99683.27
2024-02-08T21:45:51.172Z,99711.39
2024-02-08T21:48:20.798Z,99697.03
2024-02-08T21:50:54.190Z,99682.35
2024-02-08T21:53:25.184Z,99683.92
2024-02-08T21:55:53.220Z,99674.93
2024-02-08T21:58:21.254Z,99659.37
2024-02-08T22:03:34.059Z,99667.77
2024-02-08T22:06:02.416Z,99650.28
2024-02-08T22:08:30.573Z,99645.80
2024-02-08T22:10:58.688Z,99636.45
2024-02-08T22:13:30.147Z,99630.66
2024-02-08T22:15:58.973Z,99627.72
2024-02-08T22:18:27.321Z,99617.98
2024-02-08T22:20:55.300Z,99617.98
2024-02-08T22:23:23.278Z,99616.77
2024-02-08T22:25:52.019Z,99615.95
2024-02-08T22:28:20.061Z,99610.26
2024-02-08T22:30:48.276Z,99605.03
2024-02-08T22:33:16.479Z,99610.72
2024-02-08T22:35:44.469Z,99608.69
2024-02-08T22:38:12.479Z,99607.48
2024-02-08T22:40:40.633Z,99603.75
2024-02-08T22:43:08.698Z,99606.86
2024-02-08T22:45:37.340Z,99604.73
2024-02-08T22:48:06.036Z,99609.60
2024-02-08T22:50:35.976Z,99606.76
2024-02-08T22:53:07.975Z,99597.48
2024-02-08T22:55:36.182Z,99596.30
2024-02-08T22:58:04.268Z,99601.62
2024-02-08T23:00:32.741Z,99605.68
2024-02-08T23:03:09.456Z,99603.27
2024-02-08T23:05:44.294Z,99611.47
2024-02-08T23:08:12.996Z,99602.09
2024-02-08T23:10:41.238Z,99589.86
2024-02-08T23:13:12.829Z,99593.98
2024-02-08T23:15:47.871Z,99589.50
2024-02-08T23:18:17.348Z,99580.51
2024-02-08T23:20:46.168Z,99588.22
2024-02-08T23:23:14.497Z,99568.12
2024-02-08T23:25:42.994Z,99566.09
2024-02-08T23:28:13.819Z,99555.91
2024-02-08T23:30:46.357Z,99542.41
2024-02-08T23:33:15.759Z,99544.05
2024-02-08T23:35:43.942Z,99529.07
2024-02-08T23:38:11.859Z,99522.63
2024-02-08T23:40:41.551Z,99515.73
2024-02-08T23:43:10.859Z,99508.87
2024-02-08T23:45:41.577Z,99508.77
2024-02-08T23:48:11.153Z,99510.86
2024-02-08T23:50:39.257Z,99490.95
2024-02-08T23:53:07.197Z,99505.63
2024-02-08T23:55:40.176Z,99503.99
2024-02-08T23:58:12.959Z,99494.09
